Time;durP1;ratioP1;P1;durP2;ratioP2;P2;SDS_P1;SDS_P2;PMS_P1;PMS_P2;Temp;Humidity;BMP_temperature;BMP_pressure;BME280_temperature;BME280_humidity;BME280_pressure;Samples;Min_cycle;Max_cycle;Signal;HPM_P1;HPM_P2
2022/05/24 00:01:52;;;;;;;;;;;;;;;4.50;100.00;98984.12;1641605;87;20124;-67
2022/05/24 00:04:18;;;;;;;;;;;;;;;4.45;100.00;98981.47;1641553;87;20495;-67
2022/05/24 00:06:45;;;;;;;;;;;;;;;4.42;100.00;98981.23;1641484;87;20125;-67
2022/05/24 00:09:11;;;;;;;;;;;;;;;4.42;100.00;98973.89;1645688;86;20445;-66
2022/05/24 00:11:38;;;;;;;;;;;;;;;4.46;100.00;98975.48;1649891;87;21788;-66
2022/05/24 00:14:04;;;;;;;;;;;;;;;4.49;100.00;98981.14;1649709;87;20431;-66
2022/05/24 00:16:31;;;;;;;;;;;;;;;4.53;100.00;98984.91;1649998;87;20434;-66
2022/05/24 00:18:57;;;;;;;;;;;;;;;4.53;100.00;98984.91;1649725;87;21182;-66
2022/05/24 00:21:23;;;;;;;;;;;;;;;4.51;100.00;98984.94;1649845;87;20210;-66
2022/05/24 00:23:50;;;;;;;;;;;;;;;4.47;100.00;98987.42;1649944;87;21828;-66
2022/05/24 00:26:30;;;;;;;;;;;;;;;4.44;100.00;98987.19;1649696;87;20107;-66
2022/05/24 00:28:57;;;;;;;;;;;;;;;4.40;100.00;98982.88;1649819;87;20170;-66
2022/05/24 00:31:23;;;;;;;;;;;;;;;4.36;100.00;98985.91;1649820;87;20171;-66
2022/05/24 00:33:51;;;;;;;;;;;;;;;4.33;100.00;98989.20;1649913;87;20284;-66
2022/05/24 00:36:18;;;;;;;;;;;;;;;4.29;100.00;98991.69;1649739;87;21148;-66
2022/05/24 00:38:44;;;;;;;;;;;;;;;4.24;100.00;98990.93;1649722;87;20174;-66
2022/05/24 00:41:25;;;;;;;;;;;;;;;4.21;100.00;98991.50;1649793;87;20122;-66
2022/05/24 00:44:02;;;;;;;;;;;;;;;4.18;100.00;98994.24;1649868;87;20090;-66
2022/05/24 00:46:34;;;;;;;;;;;;;;;4.15;100.00;98994.82;1649872;87;20111;-66
2022/05/24 00:49:17;;;;;;;;;;;;;;;4.13;100.00;98997.56;1647636;87;21122;-66
2022/05/24 00:51:50;;;;;;;;;;;;;;;4.09;100.00;98995.97;1649752;87;20115;-67
2022/05/24 00:54:17;;;;;;;;;;;;;;;4.05;100.00;98995.46;1649663;87;20082;-67
2022/05/24 00:57:00;;;;;;;;;;;;;;;4.01;100.00;98996.61;1649830;87;20508;-67
2022/05/24 00:59:39;;;;;;;;;;;;;;;3.96;100.00;98997.47;1627068;87;20421;-67
2022/05/24 01:02:07;;;;;;;;;;;;;;;3.94;100.00;98997.49;1649855;87;20440;-67
2022/05/24 01:04:35;;;;;;;;;;;;;;;3.90;100.00;98999.16;1649705;87;20090;-67
2022/05/24 01:07:01;;;;;;;;;;;;;;;3.88;100.00;99000.80;1649845;87;20102;-67
2022/05/24 01:09:50;;;;;;;;;;;;;;;3.86;100.00;98992.12;1650437;87;20824;-67
2022/05/24 01:12:19;;;;;;;;;;;;;;;3.83;100.00;98999.48;1652859;86;20102;-67
2022/05/24 01:14:46;;;;;;;;;;;;;;;3.81;100.00;98994.88;1652835;87;21118;-67
2022/05/24 01:17:12;;;;;;;;;;;;;;;3.79;100.00;99000.34;1652985;86;20601;-67
2022/05/24 01:19:44;;;;;;;;;;;;;;;3.75;100.00;98997.38;1632237;87;20492;-67
2022/05/24 01:22:41;;;;;;;;;;;;;;;3.72;100.00;98997.95;1653109;87;20109;-67
2022/05/24 01:25:18;;;;;;;;;;;;;;;3.70;100.00;99001.49;1653131;87;20404;-66
2022/05/24 01:27:45;;;;;;;;;;;;;;;3.67;100.00;98993.91;1652856;87;21139;-67
2022/05/24 01:30:13;;;;;;;;;;;;;;;3.61;100.00;98994.50;1652789;87;38422;-67
2022/05/24 01:38:10;;;;;;;;;;;;;;;3.53;100.00;98999.17;1652777;86;20122;-66
2022/05/24 01:40:37;;;;;;;;;;;;;;;3.51;100.00;98998.64;1652971;86;22164;-67
2022/05/24 01:43:05;;;;;;;;;;;;;;;3.48;100.00;98992.42;1652873;86;20419;-67
2022/05/24 01:45:38;;;;;;;;;;;;;;;3.50;100.00;99000.28;1652921;86;20422;-67
2022/05/24 01:48:10;;;;;;;;;;;;;;;3.47;100.00;98994.87;1652820;87;20090;-67
2022/05/24 01:50:37;;;;;;;;;;;;;;;3.45;100.00;99003.88;1652992;87;20102;-67
2022/05/24 01:53:13;;;;;;;;;;;;;;;3.41;100.00;99006.08;1652767;86;21269;-67
2022/05/24 01:55:43;;;;;;;;;;;;;;;3.36;100.00;99009.64;1652802;87;20091;-67
2022/05/24 01:58:12;;;;;;;;;;;;;;;3.31;100.00;99010.48;1652712;87;20158;-66
2022/05/24 02:00:39;;;;;;;;;;;;;;;3.29;100.00;99009.95;1652776;87;20164;-66
2022/05/24 02:03:06;;;;;;;;;;;;;;;3.27;100.00;99018.91;1652965;86;20437;-66
2022/05/24 02:05:35;;;;;;;;;;;;;;;3.27;100.00;99017.55;1652860;86;21249;-66
2022/05/24 02:08:01;;;;;;;;;;;;;;;3.27;100.00;99016.74;1652807;87;20107;-66
2022/05/24 02:10:30;;;;;;;;;;;;;;;3.29;100.00;99016.73;1652682;87;20133;-66
2022/05/24 02:12:58;;;;;;;;;;;;;;;3.33;100.00;99016.98;1652946;87;20090;-67
2022/05/24 02:15:27;;;;;;;;;;;;;;;3.39;100.00;99018.57;1652711;87;20126;-66
2022/05/24 02:18:03;;;;;;;;;;;;;;;3.44;100.00;99017.18;1652780;86;21288;-66
2022/05/24 02:20:35;;;;;;;;;;;;;;;3.50;100.00;99022.00;1652857;86;20437;-66
2022/05/24 02:23:03;;;;;;;;;;;;;;;3.54;100.00;99016.27;1632516;87;20078;-66
2022/05/24 02:25:43;;;;;;;;;;;;;;;3.57;100.00;99010.28;1652693;87;20150;-67
2022/05/24 02:28:10;;;;;;;;;;;;;;;3.60;100.00;99010.52;1652859;87;20201;-67
2022/05/24 02:30:42;;;;;;;;;;;;;;;3.61;100.00;99009.43;1652847;86;21177;-67
2022/05/24 02:33:09;;;;;;;;;;;;;;;3.65;100.00;99017.81;1674290;85;20465;-67
2022/05/24 02:35:35;;;;;;;;;;;;;;;3.68;100.00;99018.61;1681697;85;20167;-67
2022/05/24 02:38:02;;;;;;;;;;;;;;;3.71;100.00;99023.47;1681795;84;20087;-67
2022/05/24 02:43:15;;;;;;;;;;;;;;;3.74;100.00;99020.19;1681854;84;21244;-67
2022/05/24 02:45:41;;;;;;;;;;;;;;;3.80;100.00;99019.61;1681099;85;20135;-66
2022/05/24 02:48:09;;;;;;;;;;;;;;;3.83;100.00;99018.48;1677553;84;20182;-67
2022/05/24 02:50:35;;;;;;;;;;;;;;;3.87;100.00;99020.91;1669635;85;20463;-66
2022/05/24 02:53:03;;;;;;;;;;;;;;;3.92;100.00;99024.94;1681793;85;20099;-66
2022/05/24 02:55:30;;;;;;;;;;;;;;;3.99;100.00;99024.61;1681488;84;21194;-66
2022/05/24 02:57:56;;;;;;;;;;;;;;;4.07;100.00;99026.67;1681603;85;20095;-66
2022/05/24 03:00:24;;;;;;;;;;;;;;;4.16;100.00;99031.75;1681703;85;20155;-67
2022/05/24 03:02:50;;;;;;;;;;;;;;;4.25;100.00;99026.52;1678414;85;20116;-67
2022/05/24 03:05:19;;;;;;;;;;;;;;;4.36;100.00;99034.02;1655516;85;20597;-67
2022/05/24 03:10:31;;;;;;;;;;;;;;;4.56;100.00;99034.62;1651684;86;20106;-69
2022/05/24 03:15:44;;;;;;;;;;;;;;;4.80;100.00;99037.31;1652347;85;20122;-68
2022/05/24 03:18:11;;;;;;;;;;;;;;;4.90;100.00;99036.38;1649088;87;20210;-70
2022/05/24 03:20:39;;;;;;;;;;;;;;;5.00;100.00;99036.80;1648870;86;21233;-71
2022/05/24 03:23:05;;;;;;;;;;;;;;;5.11;100.00;99038.30;1651588;87;20099;-72
2022/05/24 03:25:32;;;;;;;;;;;;;;;5.23;100.00;99033.20;1651611;86;20094;-71
2022/05/24 03:28:01;;;;;;;;;;;;;;;5.39;100.00;99035.98;1651613;86;20198;-70
2022/05/24 03:30:27;;;;;;;;;;;;;;;5.52;100.00;99033.89;1651640;87;20091;-69
2022/05/24 03:32:54;;;;;;;;;;;;;;;5.65;100.00;99037.78;1651477;86;21260;-69
2022/05/24 03:35:20;;;;;;;;;;;;;;;5.76;100.00;99037.89;1651566;87;20123;-69
2022/05/24 03:37:48;;;;;;;;;;;;;;;5.85;100.00;99031.99;1651610;86;20123;-67
2022/05/24 03:40:14;;;;;;;;;;;;;;;5.97;100.00;99035.65;1651478;87;20103;-71
2022/05/24 03:42:42;;;;;;;;;;;;;;;6.09;100.00;99044.72;1663327;84;20120;-84
2022/05/24 03:45:09;;;;;;;;;;;;;;;6.21;100.00;99045.87;1668887;85;21251;-67
2022/05/24 03:47:37;;;;;;;;;;;;;;;6.32;100.00;99040.23;1678889;85;20156;-66
2022/05/24 03:50:06;;;;;;;;;;;;;;;6.44;100.00;99041.34;1668709;85;20124;-66
2022/05/24 03:52:32;;;;;;;;;;;;;;;6.56;100.00;99047.13;1668618;86;20433;-67
2022/05/24 03:54:58;;;;;;;;;;;;;;;6.67;100.00;99042.84;1668485;86;20446;-67
2022/05/24 04:00:10;;;;;;;;;;;;;;;6.86;100.00;99057.20;1668521;86;20091;-66
2022/05/24 04:02:39;;;;;;;;;;;;;;;6.96;100.00;99052.88;1666534;85;20143;-66
2022/05/24 04:05:07;;;;;;;;;;;;;;;7.05;100.00;99049.69;1659071;85;20090;-66
2022/05/24 04:07:34;;;;;;;;;;;;;;;7.13;100.00;99061.27;1651517;87;20094;-66
2022/05/24 04:10:01;;;;;;;;;;;;;;;7.24;100.00;99062.67;1651489;87;21267;-66
2022/05/24 04:12:27;;;;;;;;;;;;;;;7.36;100.00;99064.06;1651542;87;20433;-66
2022/05/24 04:14:53;;;;;;;;;;;;;;;7.47;100.00;99079.13;1651651;86;20458;-66
2022/05/24 04:17:20;;;;;;;;;;;;;;;7.57;99.74;99076.14;1661122;85;20104;-66
2022/05/24 04:19:47;;;;;;;;;;;;;;;7.69;98.33;99076.97;1657652;85;20127;-67
2022/05/24 04:22:13;;;;;;;;;;;;;;;7.78;97.63;99078.66;1651544;87;21166;-66
2022/05/24 04:24:39;;;;;;;;;;;;;;;7.89;95.88;99080.05;1651461;86;20154;-66
2022/05/24 04:27:06;;;;;;;;;;;;;;;7.99;93.38;99075.45;1651528;86;20477;-72
2022/05/24 04:29:33;;;;;;;;;;;;;;;8.07;92.66;99078.81;1651265;87;20701;-66
2022/05/24 04:31:59;;;;;;;;;;;;;;;8.16;91.25;99074.19;1651808;86;20146;-65
2022/05/24 04:34:26;;;;;;;;;;;;;;;8.26;91.82;99073.94;1651522;87;20461;-65
2022/05/24 04:36:52;;;;;;;;;;;;;;;8.39;91.58;99073.65;1667679;85;20426;-66
2022/05/24 04:39:20;;;;;;;;;;;;;;;8.51;90.29;99067.05;1651576;87;20134;-66
2022/05/24 04:44:31;;;;;;;;;;;;;;;8.78;87.16;99080.52;1651643;87;20094;-65
2022/05/24 04:47:10;;;;;;;;;;;;;;;8.91;84.59;99081.55;1651526;87;21255;-65
2022/05/24 04:49:40;;;;;;;;;;;;;;;9.01;83.99;99084.00;1651621;87;20443;-66
2022/05/24 04:52:09;;;;;;;;;;;;;;;9.14;82.88;99085.83;1651825;86;20516;-65
2022/05/24 04:54:38;;;;;;;;;;;;;;;9.28;83.68;99082.94;1651800;87;20622;-65
2022/05/24 04:57:06;;;;;;;;;;;;;;;9.41;83.98;99084.75;1651544;87;20126;-65
2022/05/24 04:59:33;;;;;;;;;;;;;;;9.55;83.10;99087.35;1651839;87;21075;-65
2022/05/24 05:01:59;;;;;;;;;;;;;;;9.69;83.52;99090.76;1651532;87;20134;-65
2022/05/24 05:04:26;;;;;;;;;;;;;;;9.83;81.44;99090.58;1651565;86;20131;-66
2022/05/24 05:06:52;;;;;;;;;;;;;;;9.94;81.47;99096.80;1663587;85;20187;-65
2022/05/24 05:09:18;;;;;;;;;;;;;;;10.07;79.59;99099.70;1655331;85;20126;-65
2022/05/24 05:11:46;;;;;;;;;;;;;;;10.16;78.90;99101.32;1651482;86;21250;-65
2022/05/24 05:14:14;;;;;;;;;;;;;;;10.29;78.52;99094.08;1651472;86;20123;-66
2022/05/24 05:16:42;;;;;;;;;;;;;;;10.41;77.98;99085.97;1651588;87;20457;-66
2022/05/24 05:19:10;;;;;;;;;;;;;;;10.56;74.37;99085.45;1652440;85;20410;-66
2022/05/24 05:21:37;;;;;;;;;;;;;;;10.72;74.28;99087.67;1668210;85;20126;-67
2022/05/24 05:24:05;;;;;;;;;;;;;;;10.84;71.95;99079.00;1651427;87;21160;-67
2022/05/24 05:26:32;;;;;;;;;;;;;;;10.99;71.12;99078.99;1651381;87;20090;-69
2022/05/24 05:28:58;;;;;;;;;;;;;;;11.13;68.76;99087.02;1651482;87;20090;-70
2022/05/24 05:31:26;;;;;;;;;;;;;;;11.32;66.95;99087.97;1651444;87;20114;-72
2022/05/24 05:33:57;;;;;;;;;;;;;;;11.49;65.74;99083.75;1650688;86;20149;-74
2022/05/24 05:36:23;;;;;;;;;;;;;;;11.65;64.99;99082.58;1650076;87;21230;-71
2022/05/24 05:38:50;;;;;;;;;;;;;;;11.76;65.25;99085.97;1651505;86;20434;-69
2022/05/24 05:41:19;;;;;;;;;;;;;;;11.91;66.17;99085.98;1651765;86;20083;-70
2022/05/24 05:43:45;;;;;;;;;;;;;;;12.08;66.24;99091.91;1651449;87;20119;-70
2022/05/24 05:46:12;;;;;;;;;;;;;;;12.26;65.69;99087.84;1651743;87;20128;-70
2022/05/24 05:48:38;;;;;;;;;;;;;;;12.42;63.77;99079.77;1648932;86;21612;-74
2022/05/24 05:51:05;;;;;;;;;;;;;;;12.57;64.69;99088.77;1651662;87;20178;-73
2022/05/24 05:53:31;;;;;;;;;;;;;;;12.72;64.24;99088.08;1651287;87;20430;-72
2022/05/24 05:55:58;;;;;;;;;;;;;;;12.88;63.72;99102.81;1651431;86;20101;-66
2022/05/24 05:58:25;;;;;;;;;;;;;;;13.02;60.44;99098.94;1651450;86;20155;-67
2022/05/24 06:00:51;;;;;;;;;;;;;;;13.09;60.00;99108.24;1650913;87;21299;-67
2022/05/24 06:03:17;;;;;;;;;;;;;;;13.19;58.69;99101.51;1651498;87;20171;-66
2022/05/24 06:05:44;;;;;;;;;;;;;;;13.24;55.53;99101.28;1651377;87;20433;-65
2022/05/24 06:08:13;;;;;;;;;;;;;;;13.29;56.97;99100.22;1651657;87;20445;-66
2022/05/24 06:10:40;;;;;;;;;;;;;;;13.39;55.74;99105.28;1651463;86;20163;-65
2022/05/24 06:13:06;;;;;;;;;;;;;;;13.50;54.59;99112.74;1654123;87;21787;-65
2022/05/24 06:15:33;;;;;;;;;;;;;;;13.61;55.34;99102.63;1653948;86;20115;-65
2022/05/24 06:17:59;;;;;;;;;;;;;;;13.71;55.41;99109.86;1653921;86;20202;-66
2022/05/24 06:20:28;;;;;;;;;;;;;;;13.85;53.91;99115.01;1652962;86;20209;-65
2022/05/24 06:22:55;;;;;;;;;;;;;;;13.96;50.82;99114.73;1652193;86;20170;-66
2022/05/24 06:25:22;;;;;;;;;;;;;;;14.06;49.69;99113.44;1653008;87;21856;-67
2022/05/24 06:27:49;;;;;;;;;;;;;;;14.14;48.52;99113.88;1652410;86;20173;-66
2022/05/24 06:30:17;;;;;;;;;;;;;;;14.25;50.38;99119.14;1652716;86;20164;-67
2022/05/24 06:32:43;;;;;;;;;;;;;;;14.38;49.01;99110.23;1652172;87;20198;-66
2022/05/24 06:35:09;;;;;;;;;;;;;;;14.50;47.66;99110.19;1657488;85;20197;-66
2022/05/24 06:37:36;;;;;;;;;;;;;;;14.61;47.73;99110.48;1663829;85;21215;-66
2022/05/24 06:40:03;;;;;;;;;;;;;;;14.72;47.80;99109.63;1653007;87;20429;-66
2022/05/24 06:42:29;;;;;;;;;;;;;;;14.83;47.21;99111.29;1653107;87;20166;-66
2022/05/24 06:44:56;;;;;;;;;;;;;;;14.94;46.81;99106.85;1653340;87;20110;-66
2022/05/24 06:47:23;;;;;;;;;;;;;;;15.03;46.75;99104.69;1653196;87;20452;-67
2022/05/24 06:49:49;;;;;;;;;;;;;;;15.16;45.87;99107.59;1653240;87;21831;-66
2022/05/24 06:52:16;;;;;;;;;;;;;;;15.26;41.99;99104.07;1653275;86;20174;-65
2022/05/24 06:54:43;;;;;;;;;;;;;;;15.24;42.75;99107.19;1652137;86;20130;-66
2022/05/24 06:57:09;;;;;;;;;;;;;;;15.24;43.72;99116.87;1653288;87;20098;-65
2022/05/24 07:02:27;;;;;;;;;;;;;;;15.41;43.29;99110.17;1653377;87;21181;-66
2022/05/24 07:05:02;;;;;;;;;;;;;;;15.54;42.82;99114.45;1653569;87;20097;-66
2022/05/24 07:07:30;;;;;;;;;;;;;;;15.63;41.95;99110.91;1662837;85;20096;-67
2022/05/24 07:09:58;;;;;;;;;;;;;;;15.74;42.30;99119.46;1659395;85;20458;-66
2022/05/24 07:12:24;;;;;;;;;;;;;;;15.85;42.19;99115.78;1651629;87;20482;-66
2022/05/24 07:14:51;;;;;;;;;;;;;;;15.97;42.24;99117.63;1650719;87;21116;-66
2022/05/24 07:17:17;;;;;;;;;;;;;;;16.09;40.45;99121.65;1650910;87;20098;-66
2022/05/24 07:19:44;;;;;;;;;;;;;;;16.14;40.92;99117.80;1650976;87;20114;-66
2022/05/24 07:22:11;;;;;;;;;;;;;;;16.17;41.37;99119.84;1650727;86;20157;-66
2022/05/24 07:24:37;;;;;;;;;;;;;;;16.32;42.88;99117.56;1650771;86;20446;-66
2022/05/24 07:27:07;;;;;;;;;;;;;;;16.51;40.28;99122.30;1651038;86;21719;-66
2022/05/24 07:29:34;;;;;;;;;;;;;;;16.60;41.53;99121.49;1650320;86;20180;-66
2022/05/24 07:32:01;;;;;;;;;;;;;;;16.71;37.95;99125.30;1650411;87;21027;-66
2022/05/24 07:34:27;;;;;;;;;;;;;;;16.70;36.75;99122.31;1650644;87;20665;-66
2022/05/24 07:36:54;;;;;;;;;;;;;;;16.72;37.01;99123.34;1650761;87;20093;-66
2022/05/24 07:39:20;;;;;;;;;;;;;;;16.75;36.53;99113.67;1667136;85;21192;-66
2022/05/24 07:45:48;;;;;;;;;;;;;;;16.74;38.83;99114.88;1650707;87;20134;-66
2022/05/24 07:47:19;;;;;;;;;;;;;;;16.97;37.84;99123.77;1650603;86;20142;-66
2022/05/24 07:49:45;;;;;;;;;;;;;;;17.22;39.06;99122.84;1651375;87;20099;-66
2022/05/24 07:52:13;;;;;;;;;;;;;;;17.48;36.45;99121.47;1651426;86;20441;-66
2022/05/24 07:54:39;;;;;;;;;;;;;;;17.66;36.92;99120.39;1667458;85;20187;-66
2022/05/24 07:57:09;;;;;;;;;;;;;;;17.76;32.71;99116.39;1651383;87;20084;-66
2022/05/24 07:59:38;;;;;;;;;;;;;;;17.65;34.11;99120.98;1667493;85;20143;-66
2022/05/24 08:02:06;;;;;;;;;;;;;;;17.73;34.92;99120.50;1651627;87;20101;-66
2022/05/24 08:04:34;;;;;;;;;;;;;;;17.92;34.45;99116.20;1651542;87;21819;-66
2022/05/24 08:07:01;;;;;;;;;;;;;;;18.08;35.40;99122.97;1651534;87;20130;-67
2022/05/24 08:09:27;;;;;;;;;;;;;;;18.33;35.59;99114.38;1651493;86;20131;-66
2022/05/24 08:11:53;;;;;;;;;;;;;;;18.62;34.10;99126.65;1660261;85;20080;-67
2022/05/24 08:14:20;;;;;;;;;;;;;;;18.92;33.41;99112.69;1658562;85;20099;-66
2022/05/24 08:16:46;;;;;;;;;;;;;;;19.23;32.74;99123.89;1661975;85;22383;-66
2022/05/24 08:19:13;;;;;;;;;;;;;;;19.52;31.85;99118.00;1657077;85;20441;-66
2022/05/24 08:21:39;;;;;;;;;;;;;;;19.81;31.74;99115.41;1651578;86;20476;-66
2022/05/24 08:24:08;;;;;;;;;;;;;;;20.03;30.55;99113.77;1651569;86;20491;-66
2022/05/24 08:26:36;;;;;;;;;;;;;;;20.11;28.44;99109.03;1650788;87;20090;-66
2022/05/24 08:29:04;;;;;;;;;;;;;;;20.20;30.51;99114.25;1651555;87;21187;-66
2022/05/24 08:31:30;;;;;;;;;;;;;;;20.39;28.72;99112.55;1656212;85;20123;-66
2022/05/24 08:33:56;;;;;;;;;;;;;;;20.56;30.70;99106.84;1661162;85;20102;-66
2022/05/24 08:36:23;;;;;;;;;;;;;;;20.78;30.21;99111.90;1659324;86;20087;-66
2022/05/24 08:38:50;;;;;;;;;;;;;;;20.92;28.20;99105.73;1661049;86;20123;-66
2022/05/24 08:41:23;;;;;;;;;;;;;;;20.86;27.19;99110.69;1660755;85;21170;-66
2022/05/24 08:49:45;;;;;;;;;;;;;;;21.12;29.19;99109.55;1663493;85;20166;-66
2022/05/24 08:52:12;;;;;;;;;;;;;;;21.42;28.22;99100.20;1661554;85;20147;-67
2022/05/24 08:54:41;;;;;;;;;;;;;;;21.54;27.49;99094.22;1660146;86;21112;-66
2022/05/24 08:57:10;;;;;;;;;;;;;;;21.65;27.19;99102.59;1660090;85;20099;-67
2022/05/24 08:59:42;;;;;;;;;;;;;;;21.77;26.16;99106.37;1655528;85;20106;-66
2022/05/24 09:02:08;;;;;;;;;;;;;;;21.88;28.03;99106.35;1649916;87;20616;-67
2022/05/24 09:04:35;;;;;;;;;;;;;;;22.00;27.44;99107.30;1650193;86;20106;-67
2022/05/24 09:07:05;;;;;;;;;;;;;;;21.93;24.97;99107.34;1651172;85;21240;-67
2022/05/24 09:09:39;;;;;;;;;;;;;;;21.89;27.47;99104.55;1665617;85;20245;-67
2022/05/24 09:12:38;;;;;;;;;;;;;;;22.17;25.48;99094.50;1652111;87;20102;-66
2022/05/24 09:18:57;;;;;;;;;;;;;;;22.56;26.55;99097.92;1654215;87;20102;-65
2022/05/24 09:21:26;;;;;;;;;;;;;;;22.66;25.49;99102.66;1657474;85;21185;-65
2022/05/24 09:24:05;;;;;;;;;;;;;;;22.68;24.33;99098.86;1666174;85;20098;-65
2022/05/24 09:26:34;;;;;;;;;;;;;;;22.62;23.90;99100.48;1654212;87;20127;-65
2022/05/24 09:29:14;;;;;;;;;;;;;;;22.51;25.59;99098.97;1654187;87;20141;-65
2022/05/24 09:31:48;;;;;;;;;;;;;;;22.62;25.85;99110.88;1654138;87;20078;-65
2022/05/24 09:34:21;;;;;;;;;;;;;;;22.73;23.24;99095.63;1654222;86;21807;-65
2022/05/24 09:36:57;;;;;;;;;;;;;;;22.62;24.72;99091.30;1654098;87;20426;-64
2022/05/24 09:39:26;;;;;;;;;;;;;;;22.70;25.04;99105.45;1654120;87;20102;-65
2022/05/24 09:41:56;;;;;;;;;;;;;;;22.70;26.30;99104.84;1654321;86;20102;-65
2022/05/24 09:44:23;;;;;;;;;;;;;;;22.79;24.58;99094.63;1652901;87;20122;-65
2022/05/24 09:46:49;;;;;;;;;;;;;;;22.87;24.19;99089.19;1652867;87;21158;-65
2022/05/24 09:49:23;;;;;;;;;;;;;;;22.99;24.24;99092.12;1653940;87;20102;-66
2022/05/24 09:51:50;;;;;;;;;;;;;;;23.08;25.29;99093.06;1654097;87;20129;-75
2022/05/24 09:54:21;;;;;;;;;;;;;;;23.26;24.58;99095.89;1654035;86;20154;-69
2022/05/24 09:57:03;;;;;;;;;;;;;;;23.44;23.38;99097.16;1652801;87;20122;-69
2022/05/24 09:59:29;;;;;;;;;;;;;;;23.47;24.82;99092.73;1653025;87;21178;-70
2022/05/24 10:01:56;;;;;;;;;;;;;;;23.59;24.70;99086.66;1651886;87;20178;-68
2022/05/24 10:04:33;;;;;;;;;;;;;;;23.66;23.42;99096.40;1654010;86;20100;-67
2022/05/24 10:07:02;;;;;;;;;;;;;;;23.69;23.36;99094.94;1653953;86;20170;-70
2022/05/24 10:09:47;;;;;;;;;;;;;;;23.56;20.98;99091.69;1654043;86;20150;-69
2022/05/24 10:12:46;;;;;;;;;;;;;;;23.29;21.63;99099.27;1653974;87;22112;-69
2022/05/24 10:15:33;;;;;;;;;;;;;;;23.10;22.84;99095.64;1654072;86;20119;-65
2022/05/24 10:18:26;;;;;;;;;;;;;;;23.15;23.75;99098.58;1642794;87;20137;-65
2022/05/24 10:21:18;;;;;;;;;;;;;;;23.40;24.64;99099.19;1653824;87;20094;-69
2022/05/24 10:24:00;;;;;;;;;;;;;;;23.63;23.77;99100.83;1654497;87;20413;-68
2022/05/24 10:26:39;;;;;;;;;;;;;;;23.83;23.79;99096.01;1653862;86;21048;-68
2022/05/24 10:29:24;;;;;;;;;;;;;;;23.98;22.91;99082.04;1654032;86;20122;-67
2022/05/24 10:32:04;;;;;;;;;;;;;;;24.15;21.16;99087.27;1653736;87;20091;-68
2022/05/24 10:40:43;;;;;;;;;;;;;;;24.10;22.58;99079.31;1654119;87;21318;-68
2022/05/24 10:43:30;;;;;;;;;;;;;;;24.13;22.47;99083.48;1653892;86;20125;-68
2022/05/24 10:46:01;;;;;;;;;;;;;;;24.24;23.30;99079.14;1604002;87;20126;-67
2022/05/24 10:48:33;;;;;;;;;;;;;;;24.45;22.93;99075.28;1654308;86;20090;-67
2022/05/24 10:51:20;;;;;;;;;;;;;;;24.61;23.38;99070.66;1654078;86;20110;-67
2022/05/24 10:54:00;;;;;;;;;;;;;;;24.82;22.88;99068.16;1654151;87;21104;-72
2022/05/24 10:56:48;;;;;;;;;;;;;;;24.80;21.96;99074.81;1654098;87;20102;-66
2022/05/24 10:59:24;;;;;;;;;;;;;;;24.74;22.48;99069.48;1654284;86;20103;-68
2022/05/24 11:01:56;;;;;;;;;;;;;;;24.75;22.80;99064.05;1654097;87;20417;-65
2022/05/24 11:04:26;;;;;;;;;;;;;;;24.79;22.63;99066.20;1654370;87;20090;-66
2022/05/24 11:07:02;;;;;;;;;;;;;;;24.70;20.19;99061.72;1654012;86;21294;-67
2022/05/24 11:09:31;;;;;;;;;;;;;;;24.66;23.02;99065.98;1673060;85;20124;-67
2022/05/24 11:12:04;;;;;;;;;;;;;;;24.57;19.90;99059.30;1668837;85;20098;-67
2022/05/24 11:14:37;;;;;;;;;;;;;;;24.29;21.54;99069.66;1654012;86;20126;-66
2022/05/24 11:17:04;;;;;;;;;;;;;;;24.30;24.13;99070.46;1653248;86;20438;-68
2022/05/24 11:19:35;;;;;;;;;;;;;;;24.44;22.29;99066.08;1653836;86;21159;-66
2022/05/24 11:22:12;;;;;;;;;;;;;;;24.55;22.84;99067.34;1653958;86;20137;-66
2022/05/24 11:25:16;;;;;;;;;;;;;;;24.70;20.69;99072.95;1654026;86;20147;-67
2022/05/24 11:27:52;;;;;;;;;;;;;;;24.54;22.19;99071.36;1667251;85;20124;-67
2022/05/24 11:30:27;;;;;;;;;;;;;;;24.59;21.82;99070.89;1663977;85;20147;-65
2022/05/24 11:33:06;;;;;;;;;;;;;;;24.66;22.71;99070.19;1673009;85;21099;-67
2022/05/24 11:35:35;;;;;;;;;;;;;;;24.79;21.85;99068.22;1678195;85;20101;-65
2022/05/24 11:38:23;;;;;;;;;;;;;;;24.93;22.04;99069.38;1661785;85;20414;-64
2022/05/24 11:40:57;;;;;;;;;;;;;;;25.12;20.62;99068.72;1663835;86;20099;-67
2022/05/24 11:43:43;;;;;;;;;;;;;;;25.19;19.95;99074.84;1659236;85;20101;-67
2022/05/24 11:46:09;;;;;;;;;;;;;;;25.13;19.04;99066.70;1677305;85;21174;-67
2022/05/24 11:48:49;;;;;;;;;;;;;;;24.87;20.53;99070.47;1649256;87;20465;-68
2022/05/24 11:51:41;;;;;;;;;;;;;;;24.93;21.33;99062.36;1656162;86;20151;-67
2022/05/24 11:54:27;;;;;;;;;;;;;;;25.22;21.17;99071.18;1681201;85;20103;-67
2022/05/24 11:57:04;;;;;;;;;;;;;;;25.49;19.81;99078.13;1685978;85;20103;-68
2022/05/24 11:59:43;;;;;;;;;;;;;;;25.50;20.33;99065.67;1686466;85;21147;-67
2022/05/24 12:02:26;;;;;;;;;;;;;;;25.61;20.26;99078.31;1686273;85;20107;-68
2022/05/24 12:07:55;;;;;;;;;;;;;;;25.85;20.76;99074.91;1686377;85;20410;-72
2022/05/24 12:10:24;;;;;;;;;;;;;;;25.95;19.66;99070.31;1666240;85;20138;-73
2022/05/24 12:13:04;;;;;;;;;;;;;;;26.12;18.46;99063.52;1668128;85;21162;-69
2022/05/24 12:15:43;;;;;;;;;;;;;;;26.09;18.61;99067.19;1657774;85;20421;-67
2022/05/24 12:18:15;;;;;;;;;;;;;;;26.06;19.65;99060.23;1646847;87;20111;-67
2022/05/24 12:20:46;;;;;;;;;;;;;;;25.85;20.04;99067.88;1646703;87;20091;-67
2022/05/24 12:23:31;;;;;;;;;;;;;;;25.77;20.52;99070.63;1646932;87;20130;-71
2022/05/24 12:26:04;;;;;;;;;;;;;;;25.83;22.13;99059.69;1647098;87;20723;-68
2022/05/24 12:28:41;;;;;;;;;;;;;;;25.92;20.20;99063.53;1646812;87;20091;-67
2022/05/24 12:31:21;;;;;;;;;;;;;;;26.05;19.35;99058.03;1646935;87;20090;-66
2022/05/24 12:33:54;;;;;;;;;;;;;;;26.11;20.59;99071.77;1623989;87;20143;-67
2022/05/24 12:36:37;;;;;;;;;;;;;;;26.18;20.02;99070.22;1646881;87;20103;-67
2022/05/24 12:39:11;;;;;;;;;;;;;;;26.23;17.92;99068.31;1646305;87;21179;-68
2022/05/24 12:41:40;;;;;;;;;;;;;;;25.92;19.84;99061.33;1646827;87;20102;-72
2022/05/24 12:44:25;;;;;;;;;;;;;;;25.75;19.93;99058.23;1624757;87;20098;-74
2022/05/24 12:46:54;;;;;;;;;;;;;;;25.81;21.25;99050.28;1647038;87;20142;-74
2022/05/24 12:49:27;;;;;;;;;;;;;;;25.64;20.76;99052.80;1646774;87;20122;-70
2022/05/24 12:51:56;;;;;;;;;;;;;;;25.52;20.10;99047.77;1646227;87;21788;-70
2022/05/24 12:54:31;;;;;;;;;;;;;;;25.40;20.99;99052.62;1646782;87;20430;-72
2022/05/24 12:57:06;;;;;;;;;;;;;;;25.42;20.94;99055.16;1646793;87;20131;-70
2022/05/24 12:59:37;;;;;;;;;;;;;;;25.54;21.28;99057.36;1645014;87;20106;-64
2022/05/24 13:02:16;;;;;;;;;;;;;;;25.61;20.03;99064.27;1647037;87;20090;-65
2022/05/24 13:04:43;;;;;;;;;;;;;;;25.63;20.60;99050.58;1646883;87;21369;-65
2022/05/24 13:07:42;;;;;;;;;;;;;;;25.57;19.32;99057.12;1646876;87;20127;-67
2022/05/24 13:10:21;;;;;;;;;;;;;;;25.60;19.61;99050.64;1646720;87;20119;-65
2022/05/24 13:13:06;;;;;;;;;;;;;;;25.74;20.61;99051.02;1646987;87;20454;-67
2022/05/24 13:15:50;;;;;;;;;;;;;;;26.12;19.54;99052.88;1663921;86;20087;-66
2022/05/24 13:18:24;;;;;;;;;;;;;;;26.39;21.22;99045.11;1646817;87;21198;-67
2022/05/24 13:21:04;;;;;;;;;;;;;;;26.60;20.78;99049.45;1646715;87;20098;-67
2022/05/24 13:23:36;;;;;;;;;;;;;;;26.66;18.79;99054.75;1646643;87;20183;-65
2022/05/24 13:26:06;;;;;;;;;;;;;;;26.31;19.92;99052.11;1646932;87;20102;-66
2022/05/24 13:28:53;;;;;;;;;;;;;;;25.68;20.93;99051.34;1646741;87;20090;-66
2022/05/24 13:34:17;;;;;;;;;;;;;;;25.15;22.73;99044.00;1647057;87;20422;-65
2022/05/24 13:36:49;;;;;;;;;;;;;;;25.65;21.00;99049.56;1646868;87;20091;-63
2022/05/24 13:39:24;;;;;;;;;;;;;;;26.11;20.83;99052.08;1646946;87;20236;-64
2022/05/24 13:42:02;;;;;;;;;;;;;;;26.30;20.92;99042.05;1646489;87;20166;-64
2022/05/24 13:44:33;;;;;;;;;;;;;;;26.47;21.51;99049.36;1646857;87;20663;-64
2022/05/24 13:47:05;;;;;;;;;;;;;;;26.63;20.49;99047.18;1646721;87;20130;-66
2022/05/24 13:49:46;;;;;;;;;;;;;;;26.76;20.92;99052.31;1646762;87;20390;-67
2022/05/24 13:52:19;;;;;;;;;;;;;;;26.95;20.32;99045.83;1624146;87;20441;-69
2022/05/24 13:54:46;;;;;;;;;;;;;;;27.03;21.42;99052.73;1647020;87;20095;-69